sensor_id;sensor_type;location;lat;lon;timestamp;P1;durP1;ratioP1;P2;durP2;ratioP2
58083;SDS011;43882;51.550;11.858;2023-04-15T00:01:34;29.13;;;12.18;;
58083;SDS011;43882;51.550;11.858;2023-04-15T00:04:01;26.63;;;10.48;;
58083;SDS011;43882;51.550;11.858;2023-04-15T00:06:27;27.27;;;10.90;;
58083;SDS011;43882;51.550;11.858;2023-04-15T00:08:53;28.67;;;11.30;;
58083;SDS011;43882;51.550;11.858;2023-04-15T00:11:19;25.55;;;10.35;;
58083;SDS011;43882;51.550;11.858;2023-04-15T00:13:45;26.73;;;10.20;;
58083;SDS011;43882;51.550;11.858;2023-04-15T00:16:11;26.30;;;9.38;;
58083;SDS011;43882;51.550;11.858;2023-04-15T00:18:37;24.38;;;9.60;;
58083;SDS011;43882;51.550;11.858;2023-04-15T00:21:03;26.00;;;10.57;;
58083;SDS011;43882;51.550;11.858;2023-04-15T00:23:30;26.90;;;11.02;;
58083;SDS011;43882;51.550;11.858;2023-04-15T00:25:56;29.63;;;12.27;;
58083;SDS011;43882;51.550;11.858;2023-04-15T00:28:22;31.88;;;12.98;;
58083;SDS011;43882;51.550;11.858;2023-04-15T00:30:48;38.80;;;15.50;;
58083;SDS011;43882;51.550;11.858;2023-04-15T00:33:14;36.90;;;15.30;;
58083;SDS011;43882;51.550;11.858;2023-04-15T00:35:40;35.10;;;15.23;;
58083;SDS011;43882;51.550;11.858;2023-04-15T00:38:06;34.15;;;14.45;;
58083;SDS011;43882;51.550;11.858;2023-04-15T00:40:35;33.45;;;13.27;;
58083;SDS011;43882;51.550;11.858;2023-04-15T00:43:02;33.42;;;13.85;;
58083;SDS011;43882;51.550;11.858;2023-04-15T00:45:28;33.45;;;13.45;;
58083;SDS011;43882;51.550;11.858;2023-04-15T00:47:54;30.40;;;12.55;;
58083;SDS011;43882;51.550;11.858;2023-04-15T00:50:20;30.85;;;13.30;;
58083;SDS011;43882;51.550;11.858;2023-04-15T00:52:46;28.60;;;11.30;;
58083;SDS011;43882;51.550;11.858;2023-04-15T00:55:12;26.40;;;10.00;;
58083;SDS011;43882;51.550;11.858;2023-04-15T00:57:39;27.13;;;10.60;;
58083;SDS011;43882;51.550;11.858;2023-04-15T01:00:05;28.15;;;11.23;;
58083;SDS011;43882;51.550;11.858;2023-04-15T01:02:35;29.80;;;12.05;;
58083;SDS011;43882;51.550;11.858;2023-04-15T01:05:01;29.58;;;11.52;;
58083;SDS011;43882;51.550;11.858;2023-04-15T01:07:28;31.40;;;12.13;;
58083;SDS011;43882;51.550;11.858;2023-04-15T01:09:54;31.63;;;12.35;;
58083;SDS011;43882;51.550;11.858;2023-04-15T01:12:20;28.77;;;11.68;;
58083;SDS011;43882;51.550;11.858;2023-04-15T01:14:46;30.05;;;10.75;;
58083;SDS011;43882;51.550;11.858;2023-04-15T01:17:12;27.05;;;10.88;;
58083;SDS011;43882;51.550;11.858;2023-04-15T01:19:38;29.60;;;11.45;;
58083;SDS011;43882;51.550;11.858;2023-04-15T01:22:04;29.35;;;11.13;;
58083;SDS011;43882;51.550;11.858;2023-04-15T01:24:30;30.02;;;11.70;;
58083;SDS011;43882;51.550;11.858;2023-04-15T01:26:59;31.70;;;11.20;;
58083;SDS011;43882;51.550;11.858;2023-04-15T01:29:25;26.75;;;10.50;;
58083;SDS011;43882;51.550;11.858;2023-04-15T01:31:52;27.38;;;10.00;;
58083;SDS011;43882;51.550;11.858;2023-04-15T01:34:34;27.83;;;10.98;;
58083;SDS011;43882;51.550;11.858;2023-04-15T01:37:00;29.02;;;10.25;;
58083;SDS011;43882;51.550;11.858;2023-04-15T01:39:25;27.40;;;10.65;;
58083;SDS011;43882;51.550;11.858;2023-04-15T01:41:51;26.50;;;10.13;;
58083;SDS011;43882;51.550;11.858;2023-04-15T01:44:17;28.13;;;10.82;;
58083;SDS011;43882;51.550;11.858;2023-04-15T01:46:43;27.20;;;10.60;;
58083;SDS011;43882;51.550;11.858;2023-04-15T01:49:09;28.23;;;10.23;;
58083;SDS011;43882;51.550;11.858;2023-04-15T01:51:35;25.92;;;10.43;;
58083;SDS011;43882;51.550;11.858;2023-04-15T01:54:01;25.95;;;10.07;;
58083;SDS011;43882;51.550;11.858;2023-04-15T01:56:28;30.00;;;11.18;;
58083;SDS011;43882;51.550;11.858;2023-04-15T01:58:53;30.17;;;11.88;;
58083;SDS011;43882;51.550;11.858;2023-04-15T02:01:20;27.10;;;11.05;;
58083;SDS011;43882;51.550;11.858;2023-04-15T02:03:46;29.33;;;11.88;;
58083;SDS011;43882;51.550;11.858;2023-04-15T02:06:12;28.58;;;11.07;;
58083;SDS011;43882;51.550;11.858;2023-04-15T02:08:38;29.20;;;11.45;;
58083;SDS011;43882;51.550;11.858;2023-04-15T02:11:04;28.17;;;10.77;;
58083;SDS011;43882;51.550;11.858;2023-04-15T02:13:30;29.20;;;10.93;;
58083;SDS011;43882;51.550;11.858;2023-04-15T02:15:55;27.45;;;9.65;;
58083;SDS011;43882;51.550;11.858;2023-04-15T02:18:21;25.23;;;8.95;;
58083;SDS011;43882;51.550;11.858;2023-04-15T02:20:47;27.33;;;9.63;;
58083;SDS011;43882;51.550;11.858;2023-04-15T02:23:13;49.30;;;10.60;;
58083;SDS011;43882;51.550;11.858;2023-04-15T02:25:39;24.98;;;8.50;;
58083;SDS011;43882;51.550;11.858;2023-04-15T02:28:05;25.42;;;9.70;;
58083;SDS011;43882;51.550;11.858;2023-04-15T02:30:32;26.58;;;8.75;;
58083;SDS011;43882;51.550;11.858;2023-04-15T02:32:58;24.70;;;9.00;;
58083;SDS011;43882;51.550;11.858;2023-04-15T02:35:24;26.02;;;9.25;;
58083;SDS011;43882;51.550;11.858;2023-04-15T02:37:50;27.85;;;9.43;;
58083;SDS011;43882;51.550;11.858;2023-04-15T02:40:17;28.77;;;11.07;;
58083;SDS011;43882;51.550;11.858;2023-04-15T02:42:43;30.08;;;11.65;;
58083;SDS011;43882;51.550;11.858;2023-04-15T02:45:10;29.00;;;11.05;;
58083;SDS011;43882;51.550;11.858;2023-04-15T02:47:36;29.60;;;10.88;;
58083;SDS011;43882;51.550;11.858;2023-04-15T02:50:11;30.20;;;10.73;;
58083;SDS011;43882;51.550;11.858;2023-04-15T02:52:40;29.60;;;11.00;;
58083;SDS011;43882;51.550;11.858;2023-04-15T02:55:07;28.65;;;10.60;;
58083;SDS011;43882;51.550;11.858;2023-04-15T02:57:33;31.52;;;10.52;;
58083;SDS011;43882;51.550;11.858;2023-04-15T03:00:01;29.27;;;10.18;;
58083;SDS011;43882;51.550;11.858;2023-04-15T03:02:32;29.90;;;10.77;;
58083;SDS011;43882;51.550;11.858;2023-04-15T03:04:58;28.48;;;10.48;;
58083;SDS011;43882;51.550;11.858;2023-04-15T03:07:24;27.08;;;10.93;;
58083;SDS011;43882;51.550;11.858;2023-04-15T03:09:49;31.98;;;11.05;;
58083;SDS011;43882;51.550;11.858;2023-04-15T03:12:16;30.10;;;10.82;;
58083;SDS011;43882;51.550;11.858;2023-04-15T03:14:42;29.13;;;9.95;;
58083;SDS011;43882;51.550;11.858;2023-04-15T03:17:08;29.73;;;10.05;;
58083;SDS011;43882;51.550;11.858;2023-04-15T03:19:34;27.75;;;10.07;;
58083;SDS011;43882;51.550;11.858;2023-04-15T03:22:00;29.85;;;11.30;;
58083;SDS011;43882;51.550;11.858;2023-04-15T03:24:26;30.88;;;10.45;;
58083;SDS011;43882;51.550;11.858;2023-04-15T03:26:53;28.35;;;10.15;;
58083;SDS011;43882;51.550;11.858;2023-04-15T03:29:20;33.08;;;12.02;;
58083;SDS011;43882;51.550;11.858;2023-04-15T03:31:46;32.88;;;12.20;;
58083;SDS011;43882;51.550;11.858;2023-04-15T03:34:12;31.17;;;11.35;;
58083;SDS011;43882;51.550;11.858;2023-04-15T03:36:38;33.42;;;11.75;;
58083;SDS011;43882;51.550;11.858;2023-04-15T03:39:03;32.95;;;11.10;;
58083;SDS011;43882;51.550;11.858;2023-04-15T03:41:29;32.70;;;11.93;;
58083;SDS011;43882;51.550;11.858;2023-04-15T03:43:56;32.72;;;11.57;;
58083;SDS011;43882;51.550;11.858;2023-04-15T03:46:22;32.72;;;12.32;;
58083;SDS011;43882;51.550;11.858;2023-04-15T03:48:48;29.38;;;10.93;;
58083;SDS011;43882;51.550;11.858;2023-04-15T03:51:14;30.90;;;11.30;;
58083;SDS011;43882;51.550;11.858;2023-04-15T03:53:40;32.13;;;11.63;;
58083;SDS011;43882;51.550;11.858;2023-04-15T03:56:06;29.17;;;9.75;;
58083;SDS011;43882;51.550;11.858;2023-04-15T03:58:32;32.95;;;11.63;;
58083;SDS011;43882;51.550;11.858;2023-04-15T04:00:58;27.90;;;9.60;;
58083;SDS011;43882;51.550;11.858;2023-04-15T04:03:24;30.90;;;10.13;;
58083;SDS011;43882;51.550;11.858;2023-04-15T04:05:51;27.23;;;9.68;;
58083;SDS011;43882;51.550;11.858;2023-04-15T04:08:17;28.38;;;9.15;;
58083;SDS011;43882;51.550;11.858;2023-04-15T04:10:43;28.48;;;9.07;;
58083;SDS011;43882;51.550;11.858;2023-04-15T04:13:09;29.50;;;10.10;;
58083;SDS011;43882;51.550;11.858;2023-04-15T04:15:35;28.80;;;9.57;;
58083;SDS011;43882;51.550;11.858;2023-04-15T04:18:01;29.98;;;9.73;;
58083;SDS011;43882;51.550;11.858;2023-04-15T04:20:27;28.10;;;9.50;;
58083;SDS011;43882;51.550;11.858;2023-04-15T04:22:53;26.52;;;9.52;;
58083;SDS011;43882;51.550;11.858;2023-04-15T04:25:19;29.50;;;9.52;;
58083;SDS011;43882;51.550;11.858;2023-04-15T04:27:45;27.35;;;10.10;;
58083;SDS011;43882;51.550;11.858;2023-04-15T04:30:11;28.55;;;9.63;;
58083;SDS011;43882;51.550;11.858;2023-04-15T04:32:37;28.85;;;10.05;;
58083;SDS011;43882;51.550;11.858;2023-04-15T04:35:03;28.73;;;9.18;;
58083;SDS011;43882;51.550;11.858;2023-04-15T04:37:29;27.48;;;8.93;;
58083;SDS011;43882;51.550;11.858;2023-04-15T04:39:55;29.75;;;9.32;;
58083;SDS011;43882;51.550;11.858;2023-04-15T04:42:21;32.35;;;10.15;;
58083;SDS011;43882;51.550;11.858;2023-04-15T04:44:47;28.27;;;9.95;;
58083;SDS011;43882;51.550;11.858;2023-04-15T04:47:13;28.58;;;10.68;;
58083;SDS011;43882;51.550;11.858;2023-04-15T04:49:39;26.75;;;9.57;;
58083;SDS011;43882;51.550;11.858;2023-04-15T04:52:05;26.73;;;9.50;;
58083;SDS011;43882;51.550;11.858;2023-04-15T04:54:32;29.50;;;9.98;;
58083;SDS011;43882;51.550;11.858;2023-04-15T04:56:58;30.67;;;10.43;;
58083;SDS011;43882;51.550;11.858;2023-04-15T04:59:24;29.85;;;10.50;;
58083;SDS011;43882;51.550;11.858;2023-04-15T05:01:50;29.55;;;10.02;;
58083;SDS011;43882;51.550;11.858;2023-04-15T05:04:16;31.10;;;10.93;;
58083;SDS011;43882;51.550;11.858;2023-04-15T05:06:42;32.60;;;10.98;;
58083;SDS011;43882;51.550;11.858;2023-04-15T05:09:08;31.45;;;11.32;;
58083;SDS011;43882;51.550;11.858;2023-04-15T05:11:34;28.73;;;10.38;;
58083;SDS011;43882;51.550;11.858;2023-04-15T05:14:00;32.28;;;11.98;;
58083;SDS011;43882;51.550;11.858;2023-04-15T05:16:26;32.35;;;10.98;;
58083;SDS011;43882;51.550;11.858;2023-04-15T05:18:52;28.63;;;9.73;;
58083;SDS011;43882;51.550;11.858;2023-04-15T05:21:18;30.83;;;10.32;;
58083;SDS011;43882;51.550;11.858;2023-04-15T05:23:44;30.02;;;10.77;;
58083;SDS011;43882;51.550;11.858;2023-04-15T05:26:11;30.50;;;10.57;;
58083;SDS011;43882;51.550;11.858;2023-04-15T05:28:36;31.80;;;10.82;;
58083;SDS011;43882;51.550;11.858;2023-04-15T05:31:02;35.70;;;11.35;;
58083;SDS011;43882;51.550;11.858;2023-04-15T05:33:28;31.60;;;11.65;;
58083;SDS011;43882;51.550;11.858;2023-04-15T05:35:55;32.17;;;11.65;;
58083;SDS011;43882;51.550;11.858;2023-04-15T05:38:20;33.60;;;10.85;;
58083;SDS011;43882;51.550;11.858;2023-04-15T05:40:47;29.90;;;10.73;;
58083;SDS011;43882;51.550;11.858;2023-04-15T05:43:13;31.75;;;10.43;;
58083;SDS011;43882;51.550;11.858;2023-04-15T05:45:39;32.45;;;10.57;;
58083;SDS011;43882;51.550;11.858;2023-04-15T05:48:05;31.20;;;11.10;;
58083;SDS011;43882;51.550;11.858;2023-04-15T05:50:31;32.22;;;10.35;;
58083;SDS011;43882;51.550;11.858;2023-04-15T05:52:57;32.35;;;10.38;;
58083;SDS011;43882;51.550;11.858;2023-04-15T05:55:23;30.48;;;10.73;;
58083;SDS011;43882;51.550;11.858;2023-04-15T05:57:49;37.10;;;15.40;;
58083;SDS011;43882;51.550;11.858;2023-04-15T06:00:16;30.65;;;11.02;;
58083;SDS011;43882;51.550;11.858;2023-04-15T06:02:42;29.98;;;10.10;;
58083;SDS011;43882;51.550;11.858;2023-04-15T06:05:08;28.92;;;9.70;;
58083;SDS011;43882;51.550;11.858;2023-04-15T06:07:36;32.67;;;12.20;;
58083;SDS011;43882;51.550;11.858;2023-04-15T06:10:02;27.25;;;9.00;;
58083;SDS011;43882;51.550;11.858;2023-04-15T06:12:28;27.98;;;8.88;;
58083;SDS011;43882;51.550;11.858;2023-04-15T06:14:54;29.08;;;9.55;;
58083;SDS011;43882;51.550;11.858;2023-04-15T06:17:20;29.20;;;9.80;;
58083;SDS011;43882;51.550;11.858;2023-04-15T06:19:46;26.70;;;9.90;;
58083;SDS011;43882;51.550;11.858;2023-04-15T06:22:14;28.33;;;9.48;;
58083;SDS011;43882;51.550;11.858;2023-04-15T06:24:40;27.90;;;9.15;;
58083;SDS011;43882;51.550;11.858;2023-04-15T06:27:06;26.15;;;8.63;;
58083;SDS011;43882;51.550;11.858;2023-04-15T06:29:32;27.95;;;8.05;;
58083;SDS011;43882;51.550;11.858;2023-04-15T06:31:58;27.90;;;8.60;;
58083;SDS011;43882;51.550;11.858;2023-04-15T06:34:24;26.00;;;8.43;;
58083;SDS011;43882;51.550;11.858;2023-04-15T06:36:50;25.65;;;8.40;;
58083;SDS011;43882;51.550;11.858;2023-04-15T06:39:16;27.05;;;8.93;;
58083;SDS011;43882;51.550;11.858;2023-04-15T06:41:42;26.77;;;8.48;;
58083;SDS011;43882;51.550;11.858;2023-04-15T06:44:08;26.92;;;8.73;;
58083;SDS011;43882;51.550;11.858;2023-04-15T06:46:34;25.63;;;8.50;;
58083;SDS011;43882;51.550;11.858;2023-04-15T06:49:00;25.25;;;8.38;;
58083;SDS011;43882;51.550;11.858;2023-04-15T06:51:26;26.83;;;8.73;;
58083;SDS011;43882;51.550;11.858;2023-04-15T06:53:52;25.00;;;8.65;;
58083;SDS011;43882;51.550;11.858;2023-04-15T06:56:18;28.35;;;9.80;;
58083;SDS011;43882;51.550;11.858;2023-04-15T06:58:44;26.52;;;9.30;;
58083;SDS011;43882;51.550;11.858;2023-04-15T07:01:10;25.27;;;8.35;;
58083;SDS011;43882;51.550;11.858;2023-04-15T07:03:36;25.33;;;8.57;;
58083;SDS011;43882;51.550;11.858;2023-04-15T07:06:02;26.20;;;8.30;;
58083;SDS011;43882;51.550;11.858;2023-04-15T07:08:30;26.13;;;8.18;;
58083;SDS011;43882;51.550;11.858;2023-04-15T07:10:56;25.30;;;8.73;;
58083;SDS011;43882;51.550;11.858;2023-04-15T07:13:22;26.13;;;8.40;;
58083;SDS011;43882;51.550;11.858;2023-04-15T07:15:48;27.40;;;9.55;;
58083;SDS011;43882;51.550;11.858;2023-04-15T07:18:14;23.65;;;7.68;;
58083;SDS011;43882;51.550;11.858;2023-04-15T07:20:40;26.30;;;8.55;;
58083;SDS011;43882;51.550;11.858;2023-04-15T07:23:06;25.80;;;8.32;;
58083;SDS011;43882;51.550;11.858;2023-04-15T07:25:32;25.80;;;8.35;;
58083;SDS011;43882;51.550;11.858;2023-04-15T07:27:58;25.33;;;8.93;;
58083;SDS011;43882;51.550;11.858;2023-04-15T07:30:24;27.77;;;9.25;;
58083;SDS011;43882;51.550;11.858;2023-04-15T07:32:50;23.90;;;7.65;;
58083;SDS011;43882;51.550;11.858;2023-04-15T07:35:16;25.52;;;8.30;;
58083;SDS011;43882;51.550;11.858;2023-04-15T07:37:45;25.42;;;8.43;;
58083;SDS011;43882;51.550;11.858;2023-04-15T07:40:10;25.20;;;9.00;;
58083;SDS011;43882;51.550;11.858;2023-04-15T07:42:38;25.88;;;9.02;;
58083;SDS011;43882;51.550;11.858;2023-04-15T07:45:05;27.25;;;9.05;;
58083;SDS011;43882;51.550;11.858;2023-04-15T07:47:31;24.38;;;8.45;;
58083;SDS011;43882;51.550;11.858;2023-04-15T07:49:57;27.25;;;9.07;;
58083;SDS011;43882;51.550;11.858;2023-04-15T07:52:23;25.88;;;8.75;;
58083;SDS011;43882;51.550;11.858;2023-04-15T07:54:48;23.15;;;8.00;;
58083;SDS011;43882;51.550;11.858;2023-04-15T07:57:15;25.63;;;8.52;;
58083;SDS011;43882;51.550;11.858;2023-04-15T07:59:41;27.98;;;9.85;;
58083;SDS011;43882;51.550;11.858;2023-04-15T08:02:07;26.10;;;9.18;;
58083;SDS011;43882;51.550;11.858;2023-04-15T08:04:34;26.65;;;9.93;;
58083;SDS011;43882;51.550;11.858;2023-04-15T08:07:00;24.60;;;9.23;;
58083;SDS011;43882;51.550;11.858;2023-04-15T08:09:26;26.67;;;9.85;;
58083;SDS011;43882;51.550;11.858;2023-04-15T08:11:52;23.70;;;8.15;;
58083;SDS011;43882;51.550;11.858;2023-04-15T08:14:18;29.05;;;10.23;;
58083;SDS011;43882;51.550;11.858;2023-04-15T08:16:44;33.83;;;12.57;;
58083;SDS011;43882;51.550;11.858;2023-04-15T08:19:10;30.50;;;10.48;;
58083;SDS011;43882;51.550;11.858;2023-04-15T08:21:36;34.20;;;12.43;;
58083;SDS011;43882;51.550;11.858;2023-04-15T08:24:02;35.13;;;13.02;;
58083;SDS011;43882;51.550;11.858;2023-04-15T08:26:28;34.17;;;12.30;;
58083;SDS011;43882;51.550;11.858;2023-04-15T08:28:54;37.17;;;13.80;;
58083;SDS011;43882;51.550;11.858;2023-04-15T08:31:21;38.55;;;13.40;;
58083;SDS011;43882;51.550;11.858;2023-04-15T08:33:47;40.88;;;14.75;;
58083;SDS011;43882;51.550;11.858;2023-04-15T08:36:15;36.67;;;14.30;;
58083;SDS011;43882;51.550;11.858;2023-04-15T08:38:43;42.05;;;15.25;;
58083;SDS011;43882;51.550;11.858;2023-04-15T08:41:11;38.65;;;13.93;;
58083;SDS011;43882;51.550;11.858;2023-04-15T08:43:41;37.63;;;13.10;;
58083;SDS011;43882;51.550;11.858;2023-04-15T08:46:08;35.60;;;13.48;;
58083;SDS011;43882;51.550;11.858;2023-04-15T08:48:34;44.08;;;15.35;;
58083;SDS011;43882;51.550;11.858;2023-04-15T08:51:04;49.05;;;16.17;;
58083;SDS011;43882;51.550;11.858;2023-04-15T08:53:31;47.88;;;18.13;;
58083;SDS011;43882;51.550;11.858;2023-04-15T08:55:57;49.55;;;18.10;;
58083;SDS011;43882;51.550;11.858;2023-04-15T08:58:25;54.17;;;19.58;;
58083;SDS011;43882;51.550;11.858;2023-04-15T09:00:51;57.03;;;20.02;;
58083;SDS011;43882;51.550;11.858;2023-04-15T09:03:17;57.20;;;20.23;;
58083;SDS011;43882;51.550;11.858;2023-04-15T09:05:43;52.35;;;18.75;;
58083;SDS011;43882;51.550;11.858;2023-04-15T09:08:09;51.17;;;21.50;;
58083;SDS011;43882;51.550;11.858;2023-04-15T09:10:36;58.95;;;19.60;;
58083;SDS011;43882;51.550;11.858;2023-04-15T09:13:02;60.10;;;19.83;;
58083;SDS011;43882;51.550;11.858;2023-04-15T09:15:28;62.08;;;22.30;;
58083;SDS011;43882;51.550;11.858;2023-04-15T09:17:55;64.55;;;22.95;;
58083;SDS011;43882;51.550;11.858;2023-04-15T09:20:21;68.68;;;21.48;;
58083;SDS011;43882;51.550;11.858;2023-04-15T09:22:48;58.10;;;22.02;;
58083;SDS011;43882;51.550;11.858;2023-04-15T09:27:53;70.15;;;24.48;;
58083;SDS011;43882;51.550;11.858;2023-04-15T09:30:20;75.85;;;26.02;;
58083;SDS011;43882;51.550;11.858;2023-04-15T09:32:57;69.82;;;23.20;;
58083;SDS011;43882;51.550;11.858;2023-04-15T09:35:24;69.35;;;24.60;;
58083;SDS011;43882;51.550;11.858;2023-04-15T09:37:50;72.45;;;25.38;;
58083;SDS011;43882;51.550;11.858;2023-04-15T09:43:01;86.35;;;28.00;;
58083;SDS011;43882;51.550;11.858;2023-04-15T09:45:28;95.05;;;28.52;;
58083;SDS011;43882;51.550;11.858;2023-04-15T09:47:55;100.20;;;29.08;;
58083;SDS011;43882;51.550;11.858;2023-04-15T09:50:21;101.70;;;29.02;;
58083;SDS011;43882;51.550;11.858;2023-04-15T09:52:52;109.95;;;31.40;;
58083;SDS011;43882;51.550;11.858;2023-04-15T09:55:18;102.40;;;32.88;;
58083;SDS011;43882;51.550;11.858;2023-04-15T09:57:44;101.45;;;30.80;;
58083;SDS011;43882;51.550;11.858;2023-04-15T10:00:13;101.78;;;32.10;;
58083;SDS011;43882;51.550;11.858;2023-04-15T10:02:40;102.47;;;30.42;;
58083;SDS011;43882;51.550;11.858;2023-04-15T10:05:06;119.38;;;32.50;;
58083;SDS011;43882;51.550;11.858;2023-04-15T10:07:32;123.15;;;34.20;;
58083;SDS011;43882;51.550;11.858;2023-04-15T10:09:59;123.18;;;34.10;;
58083;SDS011;43882;51.550;11.858;2023-04-15T10:12:26;123.85;;;35.13;;
58083;SDS011;43882;51.550;11.858;2023-04-15T10:14:57;114.40;;;32.78;;
58083;SDS011;43882;51.550;11.858;2023-04-15T10:17:24;133.13;;;36.45;;
58083;SDS011;43882;51.550;11.858;2023-04-15T10:19:53;122.70;;;37.58;;
58083;SDS011;43882;51.550;11.858;2023-04-15T10:22:20;117.45;;;35.83;;
58083;SDS011;43882;51.550;11.858;2023-04-15T10:24:46;127.95;;;36.10;;
58083;SDS011;43882;51.550;11.858;2023-04-15T10:27:13;133.82;;;37.50;;
58083;SDS011;43882;51.550;11.858;2023-04-15T10:29:40;135.98;;;37.58;;
58083;SDS011;43882;51.550;11.858;2023-04-15T10:32:06;124.43;;;37.60;;
58083;SDS011;43882;51.550;11.858;2023-04-15T10:34:32;134.90;;;38.17;;
58083;SDS011;43882;51.550;11.858;2023-04-15T10:37:00;153.75;;;41.80;;
58083;SDS011;43882;51.550;11.858;2023-04-15T10:42:15;157.07;;;39.42;;
58083;SDS011;43882;51.550;11.858;2023-04-15T10:44:42;144.82;;;41.95;;
58083;SDS011;43882;51.550;11.858;2023-04-15T10:47:12;153.55;;;41.28;;
58083;SDS011;43882;51.550;11.858;2023-04-15T10:49:42;147.57;;;39.80;;
58083;SDS011;43882;51.550;11.858;2023-04-15T10:52:09;143.57;;;41.25;;
58083;SDS011;43882;51.550;11.858;2023-04-15T10:54:35;146.95;;;43.30;;
58083;SDS011;43882;51.550;11.858;2023-04-15T11:02:15;133.63;;;40.78;;
58083;SDS011;43882;51.550;11.858;2023-04-15T11:04:54;124.95;;;40.47;;
58083;SDS011;43882;51.550;11.858;2023-04-15T11:07:40;118.05;;;38.05;;
58083;SDS011;43882;51.550;11.858;2023-04-15T11:12:39;116.03;;;37.95;;
58083;SDS011;43882;51.550;11.858;2023-04-15T11:17:50;106.35;;;38.35;;
58083;SDS011;43882;51.550;11.858;2023-04-15T11:20:16;126.38;;;39.90;;
58083;SDS011;43882;51.550;11.858;2023-04-15T11:22:52;115.50;;;38.40;;
58083;SDS011;43882;51.550;11.858;2023-04-15T11:25:24;104.50;;;35.97;;
58083;SDS011;43882;51.550;11.858;2023-04-15T11:27:51;112.75;;;37.13;;
58083;SDS011;43882;51.550;11.858;2023-04-15T11:30:18;96.78;;;36.42;;
58083;SDS011;43882;51.550;11.858;2023-04-15T11:32:46;101.70;;;35.85;;
58083;SDS011;43882;51.550;11.858;2023-04-15T11:35:11;106.55;;;37.05;;
58083;SDS011;43882;51.550;11.858;2023-04-15T11:37:37;105.45;;;35.88;;
58083;SDS011;43882;51.550;11.858;2023-04-15T11:40:04;88.25;;;35.42;;
58083;SDS011;43882;51.550;11.858;2023-04-15T11:42:30;100.30;;;35.58;;
58083;SDS011;43882;51.550;11.858;2023-04-15T11:45:09;102.93;;;37.20;;
58083;SDS011;43882;51.550;11.858;2023-04-15T11:47:36;94.85;;;36.13;;
58083;SDS011;43882;51.550;11.858;2023-04-15T11:50:15;88.40;;;34.78;;
58083;SDS011;43882;51.550;11.858;2023-04-15T11:52:51;94.22;;;35.67;;
58083;SDS011;43882;51.550;11.858;2023-04-15T11:55:17;86.07;;;33.90;;
58083;SDS011;43882;51.550;11.858;2023-04-15T11:57:43;83.88;;;34.67;;
58083;SDS011;43882;51.550;11.858;2023-04-15T12:00:09;76.70;;;32.65;;
58083;SDS011;43882;51.550;11.858;2023-04-15T12:02:35;76.30;;;32.00;;
58083;SDS011;43882;51.550;11.858;2023-04-15T12:05:04;72.00;;;31.70;;
58083;SDS011;43882;51.550;11.858;2023-04-15T12:07:31;77.10;;;32.13;;
58083;SDS011;43882;51.550;11.858;2023-04-15T12:09:57;73.65;;;30.90;;
58083;SDS011;43882;51.550;11.858;2023-04-15T12:12:27;76.25;;;33.97;;
58083;SDS011;43882;51.550;11.858;2023-04-15T12:14:53;76.75;;;31.92;;
58083;SDS011;43882;51.550;11.858;2023-04-15T12:17:21;73.32;;;31.13;;
58083;SDS011;43882;51.550;11.858;2023-04-15T12:19:48;74.75;;;31.17;;
58083;SDS011;43882;51.550;11.858;2023-04-15T12:22:15;64.60;;;31.00;;
58083;SDS011;43882;51.550;11.858;2023-04-15T12:24:41;70.82;;;31.98;;
58083;SDS011;43882;51.550;11.858;2023-04-15T12:27:12;69.90;;;30.08;;
58083;SDS011;43882;51.550;11.858;2023-04-15T12:29:38;64.82;;;30.00;;
58083;SDS011;43882;51.550;11.858;2023-04-15T12:32:05;63.15;;;30.27;;
58083;SDS011;43882;51.550;11.858;2023-04-15T12:34:33;60.03;;;27.10;;
58083;SDS011;43882;51.550;11.858;2023-04-15T12:37:01;67.28;;;30.38;;
58083;SDS011;43882;51.550;11.858;2023-04-15T12:39:28;65.93;;;30.23;;
58083;SDS011;43882;51.550;11.858;2023-04-15T12:41:55;65.45;;;30.48;;
58083;SDS011;43882;51.550;11.858;2023-04-15T12:44:21;65.65;;;29.08;;
58083;SDS011;43882;51.550;11.858;2023-04-15T12:46:48;63.03;;;30.73;;
58083;SDS011;43882;51.550;11.858;2023-04-15T12:49:14;58.53;;;28.40;;
58083;SDS011;43882;51.550;11.858;2023-04-15T12:51:40;53.47;;;26.45;;
58083;SDS011;43882;51.550;11.858;2023-04-15T12:54:06;52.50;;;26.02;;
58083;SDS011;43882;51.550;11.858;2023-04-15T12:56:33;54.13;;;26.10;;
58083;SDS011;43882;51.550;11.858;2023-04-15T12:58:59;55.83;;;25.75;;
58083;SDS011;43882;51.550;11.858;2023-04-15T13:01:24;50.90;;;24.85;;
58083;SDS011;43882;51.550;11.858;2023-04-15T13:03:51;50.65;;;24.83;;
58083;SDS011;43882;51.550;11.858;2023-04-15T13:06:17;46.65;;;22.65;;
58083;SDS011;43882;51.550;11.858;2023-04-15T13:08:43;48.97;;;23.63;;
58083;SDS011;43882;51.550;11.858;2023-04-15T13:11:09;46.05;;;20.75;;
58083;SDS011;43882;51.550;11.858;2023-04-15T13:13:35;46.38;;;23.08;;
58083;SDS011;43882;51.550;11.858;2023-04-15T13:16:01;48.55;;;22.83;;
58083;SDS011;43882;51.550;11.858;2023-04-15T13:18:27;49.83;;;23.27;;
58083;SDS011;43882;51.550;11.858;2023-04-15T13:20:55;48.03;;;22.38;;
58083;SDS011;43882;51.550;11.858;2023-04-15T13:23:21;47.40;;;22.67;;
58083;SDS011;43882;51.550;11.858;2023-04-15T13:25:47;42.85;;;21.05;;
58083;SDS011;43882;51.550;11.858;2023-04-15T13:28:13;44.13;;;21.60;;
58083;SDS011;43882;51.550;11.858;2023-04-15T13:30:39;46.83;;;21.58;;
58083;SDS011;43882;51.550;11.858;2023-04-15T13:33:05;43.03;;;21.23;;
58083;SDS011;43882;51.550;11.858;2023-04-15T13:35:31;40.97;;;20.33;;
58083;SDS011;43882;51.550;11.858;2023-04-15T13:37:57;41.92;;;20.90;;
58083;SDS011;43882;51.550;11.858;2023-04-15T13:40:23;38.10;;;18.50;;
58083;SDS011;43882;51.550;11.858;2023-04-15T13:42:50;34.85;;;17.58;;
58083;SDS011;43882;51.550;11.858;2023-04-15T13:45:17;36.13;;;17.48;;
58083;SDS011;43882;51.550;11.858;2023-04-15T13:47:43;40.20;;;19.33;;
58083;SDS011;43882;51.550;11.858;2023-04-15T13:50:09;36.28;;;18.27;;
58083;SDS011;43882;51.550;11.858;2023-04-15T13:52:35;37.45;;;17.83;;
58083;SDS011;43882;51.550;11.858;2023-04-15T13:55:02;37.05;;;17.77;;
58083;SDS011;43882;51.550;11.858;2023-04-15T13:57:28;34.35;;;17.30;;
58083;SDS011;43882;51.550;11.858;2023-04-15T13:59:54;37.70;;;18.10;;
58083;SDS011;43882;51.550;11.858;2023-04-15T14:02:20;38.55;;;18.13;;
58083;SDS011;43882;51.550;11.858;2023-04-15T14:04:47;38.13;;;17.67;;
58083;SDS011;43882;51.550;11.858;2023-04-15T14:07:13;34.97;;;17.95;;
58083;SDS011;43882;51.550;11.858;2023-04-15T14:09:39;33.72;;;17.25;;
58083;SDS011;43882;51.550;11.858;2023-04-15T14:12:05;37.63;;;17.85;;
58083;SDS011;43882;51.550;11.858;2023-04-15T14:14:32;36.22;;;16.95;;
58083;SDS011;43882;51.550;11.858;2023-04-15T14:16:58;34.67;;;16.30;;
58083;SDS011;43882;51.550;11.858;2023-04-15T14:19:24;33.08;;;16.42;;
58083;SDS011;43882;51.550;11.858;2023-04-15T14:21:50;38.80;;;18.55;;
58083;SDS011;43882;51.550;11.858;2023-04-15T14:24:16;41.35;;;19.65;;
58083;SDS011;43882;51.550;11.858;2023-04-15T14:26:42;38.25;;;18.27;;